sensor_id;sensor_type;location;lat;lon;timestamp;P1;durP1;ratioP1;P2;durP2;ratioP2
19907;SDS011;10116;53.112;7.356;2023-03-31T00:01:25;3.87;;;1.70;;
19907;SDS011;10116;53.112;7.356;2023-03-31T00:03:51;2.30;;;1.60;;
19907;SDS011;10116;53.112;7.356;2023-03-31T00:06:35;7.33;;;1.50;;
19907;SDS011;10116;53.112;7.356;2023-03-31T00:09:04;1.90;;;1.53;;
19907;SDS011;10116;53.112;7.356;2023-03-31T00:11:30;2.77;;;1.73;;
19907;SDS011;10116;53.112;7.356;2023-03-31T00:13:56;3.50;;;1.83;;
19907;SDS011;10116;53.112;7.356;2023-03-31T00:16:21;2.77;;;1.70;;
19907;SDS011;10116;53.112;7.356;2023-03-31T00:18:47;2.87;;;1.50;;
19907;SDS011;10116;53.112;7.356;2023-03-31T00:21:15;2.37;;;1.83;;
19907;SDS011;10116;53.112;7.356;2023-03-31T00:23:56;3.33;;;1.80;;
19907;SDS011;10116;53.112;7.356;2023-03-31T00:26:24;2.73;;;1.90;;
19907;SDS011;10116;53.112;7.356;2023-03-31T00:28:50;5.53;;;1.97;;
19907;SDS011;10116;53.112;7.356;2023-03-31T00:31:17;2.93;;;1.67;;
19907;SDS011;10116;53.112;7.356;2023-03-31T00:33:43;4.20;;;1.93;;
19907;SDS011;10116;53.112;7.356;2023-03-31T00:36:08;3.30;;;1.77;;
19907;SDS011;10116;53.112;7.356;2023-03-31T00:38:34;6.07;;;2.10;;
19907;SDS011;10116;53.112;7.356;2023-03-31T00:41:00;2.97;;;1.80;;
19907;SDS011;10116;53.112;7.356;2023-03-31T00:43:31;3.33;;;1.83;;
19907;SDS011;10116;53.112;7.356;2023-03-31T00:46:00;3.37;;;1.63;;
19907;SDS011;10116;53.112;7.356;2023-03-31T00:48:33;1.70;;;1.40;;
19907;SDS011;10116;53.112;7.356;2023-03-31T00:51:03;1.90;;;1.60;;
19907;SDS011;10116;53.112;7.356;2023-03-31T00:53:31;4.23;;;2.00;;
19907;SDS011;10116;53.112;7.356;2023-03-31T00:56:02;2.93;;;1.67;;
19907;SDS011;10116;53.112;7.356;2023-03-31T00:58:32;5.00;;;2.10;;
19907;SDS011;10116;53.112;7.356;2023-03-31T01:00:59;2.70;;;1.47;;
19907;SDS011;10116;53.112;7.356;2023-03-31T01:03:27;2.77;;;1.53;;
19907;SDS011;10116;53.112;7.356;2023-03-31T01:05:58;4.60;;;1.63;;
19907;SDS011;10116;53.112;7.356;2023-03-31T01:08:28;2.40;;;1.90;;
19907;SDS011;10116;53.112;7.356;2023-03-31T01:11:02;1.97;;;1.70;;
19907;SDS011;10116;53.112;7.356;2023-03-31T01:13:33;2.70;;;1.50;;
19907;SDS011;10116;53.112;7.356;2023-03-31T01:16:01;2.00;;;1.30;;
19907;SDS011;10116;53.112;7.356;2023-03-31T01:18:27;2.10;;;1.50;;
19907;SDS011;10116;53.112;7.356;2023-03-31T01:43:22;3.03;;;1.50;;
19907;SDS011;10116;53.112;7.356;2023-03-31T01:54:18;2.87;;;1.60;;
19907;SDS011;10116;53.112;7.356;2023-03-31T01:56:54;2.90;;;1.77;;
19907;SDS011;10116;53.112;7.356;2023-03-31T02:04:59;3.37;;;2.00;;
19907;SDS011;10116;53.112;7.356;2023-03-31T02:07:40;2.97;;;2.00;;
19907;SDS011;10116;53.112;7.356;2023-03-31T02:10:12;2.20;;;1.60;;
19907;SDS011;10116;53.112;7.356;2023-03-31T02:12:40;1.67;;;1.50;;
19907;SDS011;10116;53.112;7.356;2023-03-31T02:15:08;2.83;;;1.63;;
19907;SDS011;10116;53.112;7.356;2023-03-31T02:17:38;2.00;;;1.23;;
19907;SDS011;10116;53.112;7.356;2023-03-31T02:20:07;5.53;;;2.10;;
19907;SDS011;10116;53.112;7.356;2023-03-31T02:22:37;2.20;;;1.53;;
19907;SDS011;10116;53.112;7.356;2023-03-31T02:25:05;2.27;;;1.50;;
19907;SDS011;10116;53.112;7.356;2023-03-31T02:27:39;2.37;;;1.60;;
19907;SDS011;10116;53.112;7.356;2023-03-31T02:30:10;1.70;;;1.23;;
19907;SDS011;10116;53.112;7.356;2023-03-31T02:32:38;4.57;;;1.63;;
19907;SDS011;10116;53.112;7.356;2023-03-31T02:35:09;2.57;;;1.90;;
19907;SDS011;10116;53.112;7.356;2023-03-31T02:37:38;2.17;;;1.37;;
19907;SDS011;10116;53.112;7.356;2023-03-31T02:40:06;3.30;;;1.80;;
19907;SDS011;10116;53.112;7.356;2023-03-31T02:42:38;2.50;;;1.70;;
19907;SDS011;10116;53.112;7.356;2023-03-31T02:45:32;4.47;;;1.97;;
19907;SDS011;10116;53.112;7.356;2023-03-31T02:47:57;2.57;;;1.63;;
19907;SDS011;10116;53.112;7.356;2023-03-31T02:50:23;2.07;;;1.67;;
19907;SDS011;10116;53.112;7.356;2023-03-31T02:53:02;1.90;;;1.50;;
19907;SDS011;10116;53.112;7.356;2023-03-31T03:01:24;2.60;;;1.60;;
19907;SDS011;10116;53.112;7.356;2023-03-31T03:14:43;2.43;;;1.60;;
19907;SDS011;10116;53.112;7.356;2023-03-31T03:19:52;2.97;;;1.10;;
19907;SDS011;10116;53.112;7.356;2023-03-31T03:22:19;2.47;;;1.30;;
19907;SDS011;10116;53.112;7.356;2023-03-31T03:24:45;3.53;;;1.70;;
19907;SDS011;10116;53.112;7.356;2023-03-31T03:27:11;2.80;;;1.67;;
19907;SDS011;10116;53.112;7.356;2023-03-31T03:29:37;3.47;;;1.67;;
19907;SDS011;10116;53.112;7.356;2023-03-31T03:32:03;2.13;;;1.60;;
19907;SDS011;10116;53.112;7.356;2023-03-31T03:34:28;3.93;;;1.67;;
19907;SDS011;10116;53.112;7.356;2023-03-31T03:36:54;2.50;;;1.50;;
19907;SDS011;10116;53.112;7.356;2023-03-31T03:39:20;2.17;;;1.20;;
19907;SDS011;10116;53.112;7.356;2023-03-31T03:41:46;2.07;;;1.47;;
19907;SDS011;10116;53.112;7.356;2023-03-31T03:44:11;2.40;;;1.20;;
19907;SDS011;10116;53.112;7.356;2023-03-31T03:46:37;1.40;;;1.30;;
19907;SDS011;10116;53.112;7.356;2023-03-31T03:49:02;1.80;;;1.40;;
19907;SDS011;10116;53.112;7.356;2023-03-31T03:51:28;3.67;;;1.60;;
19907;SDS011;10116;53.112;7.356;2023-03-31T03:53:53;3.03;;;1.57;;
19907;SDS011;10116;53.112;7.356;2023-03-31T03:56:19;4.03;;;2.10;;
19907;SDS011;10116;53.112;7.356;2023-03-31T03:58:46;3.23;;;1.70;;
19907;SDS011;10116;53.112;7.356;2023-03-31T04:01:11;2.60;;;1.30;;
19907;SDS011;10116;53.112;7.356;2023-03-31T04:03:38;2.33;;;1.30;;
19907;SDS011;10116;53.112;7.356;2023-03-31T04:06:03;3.50;;;1.37;;
19907;SDS011;10116;53.112;7.356;2023-03-31T04:08:29;2.50;;;1.50;;
19907;SDS011;10116;53.112;7.356;2023-03-31T04:10:55;2.43;;;1.63;;
19907;SDS011;10116;53.112;7.356;2023-03-31T04:13:20;1.40;;;1.30;;
19907;SDS011;10116;53.112;7.356;2023-03-31T04:15:46;2.40;;;1.27;;
19907;SDS011;10116;53.112;7.356;2023-03-31T04:18:12;1.97;;;1.23;;
19907;SDS011;10116;53.112;7.356;2023-03-31T04:20:49;1.93;;;1.33;;
19907;SDS011;10116;53.112;7.356;2023-03-31T04:23:28;2.10;;;1.67;;
19907;SDS011;10116;53.112;7.356;2023-03-31T04:25:54;2.47;;;1.70;;
19907;SDS011;10116;53.112;7.356;2023-03-31T04:28:19;2.23;;;1.57;;
19907;SDS011;10116;53.112;7.356;2023-03-31T04:30:45;2.87;;;1.50;;
19907;SDS011;10116;53.112;7.356;2023-03-31T04:33:11;1.93;;;1.20;;
19907;SDS011;10116;53.112;7.356;2023-03-31T04:35:39;1.80;;;1.37;;
19907;SDS011;10116;53.112;7.356;2023-03-31T04:38:21;1.47;;;1.10;;
19907;SDS011;10116;53.112;7.356;2023-03-31T04:40:49;3.83;;;1.70;;
19907;SDS011;10116;53.112;7.356;2023-03-31T04:43:17;2.20;;;1.50;;
19907;SDS011;10116;53.112;7.356;2023-03-31T04:45:44;2.40;;;2.00;;
19907;SDS011;10116;53.112;7.356;2023-03-31T04:48:10;7.73;;;2.00;;
19907;SDS011;10116;53.112;7.356;2023-03-31T04:50:36;1.93;;;1.33;;
19907;SDS011;10116;53.112;7.356;2023-03-31T04:53:03;2.90;;;1.50;;
19907;SDS011;10116;53.112;7.356;2023-03-31T04:55:29;2.00;;;1.80;;
19907;SDS011;10116;53.112;7.356;2023-03-31T04:57:55;1.80;;;1.53;;
19907;SDS011;10116;53.112;7.356;2023-03-31T05:00:21;2.87;;;1.70;;
19907;SDS011;10116;53.112;7.356;2023-03-31T05:02:47;5.37;;;1.53;;
19907;SDS011;10116;53.112;7.356;2023-03-31T05:05:13;2.10;;;1.63;;
19907;SDS011;10116;53.112;7.356;2023-03-31T05:07:39;3.37;;;1.73;;
19907;SDS011;10116;53.112;7.356;2023-03-31T05:10:05;1.97;;;1.40;;
19907;SDS011;10116;53.112;7.356;2023-03-31T05:12:34;6.10;;;1.67;;
19907;SDS011;10116;53.112;7.356;2023-03-31T05:15:01;4.53;;;1.30;;
19907;SDS011;10116;53.112;7.356;2023-03-31T05:17:30;3.60;;;1.53;;
19907;SDS011;10116;53.112;7.356;2023-03-31T05:19:56;2.30;;;1.50;;
19907;SDS011;10116;53.112;7.356;2023-03-31T05:22:23;2.73;;;1.33;;
19907;SDS011;10116;53.112;7.356;2023-03-31T05:24:49;9.73;;;1.77;;
19907;SDS011;10116;53.112;7.356;2023-03-31T05:27:14;4.20;;;2.10;;
19907;SDS011;10116;53.112;7.356;2023-03-31T05:29:40;6.97;;;2.17;;
19907;SDS011;10116;53.112;7.356;2023-03-31T05:32:06;4.77;;;2.17;;
19907;SDS011;10116;53.112;7.356;2023-03-31T05:34:31;2.50;;;1.63;;
19907;SDS011;10116;53.112;7.356;2023-03-31T05:36:57;3.80;;;1.53;;
19907;SDS011;10116;53.112;7.356;2023-03-31T05:39:23;4.20;;;1.83;;
19907;SDS011;10116;53.112;7.356;2023-03-31T05:41:49;3.80;;;1.87;;
19907;SDS011;10116;53.112;7.356;2023-03-31T05:44:14;2.60;;;1.73;;
19907;SDS011;10116;53.112;7.356;2023-03-31T05:46:40;3.90;;;1.60;;
19907;SDS011;10116;53.112;7.356;2023-03-31T05:49:06;6.17;;;1.57;;
19907;SDS011;10116;53.112;7.356;2023-03-31T05:51:32;3.17;;;1.73;;
19907;SDS011;10116;53.112;7.356;2023-03-31T05:53:58;5.37;;;1.60;;
19907;SDS011;10116;53.112;7.356;2023-03-31T05:56:24;4.13;;;1.80;;
19907;SDS011;10116;53.112;7.356;2023-03-31T05:58:51;4.50;;;1.77;;
19907;SDS011;10116;53.112;7.356;2023-03-31T06:01:17;2.73;;;2.00;;
19907;SDS011;10116;53.112;7.356;2023-03-31T06:03:47;3.23;;;1.40;;
19907;SDS011;10116;53.112;7.356;2023-03-31T06:06:14;5.13;;;1.80;;
19907;SDS011;10116;53.112;7.356;2023-03-31T06:08:43;3.57;;;1.70;;
19907;SDS011;10116;53.112;7.356;2023-03-31T06:11:12;6.03;;;2.00;;
19907;SDS011;10116;53.112;7.356;2023-03-31T06:13:43;4.00;;;1.90;;
19907;SDS011;10116;53.112;7.356;2023-03-31T06:16:10;5.93;;;1.90;;
19907;SDS011;10116;53.112;7.356;2023-03-31T06:18:36;5.13;;;1.80;;
19907;SDS011;10116;53.112;7.356;2023-03-31T06:21:02;2.23;;;1.40;;
19907;SDS011;10116;53.112;7.356;2023-03-31T06:23:28;4.13;;;1.80;;
19907;SDS011;10116;53.112;7.356;2023-03-31T06:25:57;3.90;;;1.63;;
19907;SDS011;10116;53.112;7.356;2023-03-31T06:28:27;3.00;;;1.53;;
19907;SDS011;10116;53.112;7.356;2023-03-31T06:31:06;2.87;;;1.70;;
19907;SDS011;10116;53.112;7.356;2023-03-31T06:33:36;2.70;;;1.97;;
19907;SDS011;10116;53.112;7.356;2023-03-31T06:36:02;3.40;;;1.63;;
19907;SDS011;10116;53.112;7.356;2023-03-31T06:38:29;4.07;;;1.80;;
19907;SDS011;10116;53.112;7.356;2023-03-31T06:40:55;2.13;;;1.40;;
19907;SDS011;10116;53.112;7.356;2023-03-31T06:43:21;4.27;;;1.50;;
19907;SDS011;10116;53.112;7.356;2023-03-31T06:45:47;5.60;;;1.63;;
19907;SDS011;10116;53.112;7.356;2023-03-31T06:48:12;1.50;;;1.40;;
19907;SDS011;10116;53.112;7.356;2023-03-31T06:50:38;1.63;;;1.30;;
19907;SDS011;10116;53.112;7.356;2023-03-31T06:53:05;4.07;;;1.50;;
19907;SDS011;10116;53.112;7.356;2023-03-31T06:55:32;1.93;;;1.43;;
19907;SDS011;10116;53.112;7.356;2023-03-31T06:57:58;1.67;;;1.50;;
19907;SDS011;10116;53.112;7.356;2023-03-31T07:00:24;2.77;;;1.40;;
19907;SDS011;10116;53.112;7.356;2023-03-31T07:02:51;1.97;;;1.47;;
19907;SDS011;10116;53.112;7.356;2023-03-31T07:05:17;1.70;;;1.40;;
19907;SDS011;10116;53.112;7.356;2023-03-31T07:07:44;2.67;;;1.40;;
19907;SDS011;10116;53.112;7.356;2023-03-31T07:10:10;2.30;;;1.50;;
19907;SDS011;10116;53.112;7.356;2023-03-31T07:12:35;1.43;;;1.20;;
19907;SDS011;10116;53.112;7.356;2023-03-31T07:15:01;2.10;;;1.50;;
19907;SDS011;10116;53.112;7.356;2023-03-31T07:17:27;1.33;;;1.23;;
19907;SDS011;10116;53.112;7.356;2023-03-31T07:19:53;1.47;;;1.37;;
19907;SDS011;10116;53.112;7.356;2023-03-31T07:22:18;1.93;;;1.20;;
19907;SDS011;10116;53.112;7.356;2023-03-31T07:24:44;1.20;;;1.20;;
19907;SDS011;10116;53.112;7.356;2023-03-31T07:27:10;3.07;;;1.10;;
19907;SDS011;10116;53.112;7.356;2023-03-31T07:29:35;1.43;;;1.27;;
19907;SDS011;10116;53.112;7.356;2023-03-31T07:32:01;4.23;;;1.60;;
19907;SDS011;10116;53.112;7.356;2023-03-31T07:34:26;2.67;;;1.60;;
19907;SDS011;10116;53.112;7.356;2023-03-31T07:36:55;6.63;;;1.50;;
19907;SDS011;10116;53.112;7.356;2023-03-31T07:39:21;3.43;;;1.50;;
19907;SDS011;10116;53.112;7.356;2023-03-31T07:41:46;9.63;;;2.00;;
19907;SDS011;10116;53.112;7.356;2023-03-31T07:44:12;4.73;;;1.60;;
19907;SDS011;10116;53.112;7.356;2023-03-31T07:46:38;5.97;;;1.63;;
19907;SDS011;10116;53.112;7.356;2023-03-31T07:49:03;5.17;;;1.30;;
19907;SDS011;10116;53.112;7.356;2023-03-31T07:51:29;3.77;;;1.30;;
19907;SDS011;10116;53.112;7.356;2023-03-31T07:53:54;3.43;;;1.10;;
19907;SDS011;10116;53.112;7.356;2023-03-31T07:56:21;6.00;;;1.40;;
19907;SDS011;10116;53.112;7.356;2023-03-31T07:58:48;3.93;;;1.30;;
19907;SDS011;10116;53.112;7.356;2023-03-31T08:01:14;3.80;;;1.30;;
19907;SDS011;10116;53.112;7.356;2023-03-31T08:03:42;1.00;;;0.90;;
19907;SDS011;10116;53.112;7.356;2023-03-31T08:06:08;2.03;;;1.00;;
19907;SDS011;10116;53.112;7.356;2023-03-31T08:08:34;2.30;;;1.00;;
19907;SDS011;10116;53.112;7.356;2023-03-31T08:11:02;1.10;;;1.00;;
19907;SDS011;10116;53.112;7.356;2023-03-31T08:13:28;3.03;;;1.00;;
19907;SDS011;10116;53.112;7.356;2023-03-31T08:15:54;2.23;;;1.10;;
19907;SDS011;10116;53.112;7.356;2023-03-31T08:18:20;2.30;;;1.17;;
19907;SDS011;10116;53.112;7.356;2023-03-31T08:20:45;1.33;;;1.23;;
19907;SDS011;10116;53.112;7.356;2023-03-31T08:23:13;3.73;;;1.33;;
19907;SDS011;10116;53.112;7.356;2023-03-31T08:25:39;2.50;;;1.60;;
19907;SDS011;10116;53.112;7.356;2023-03-31T08:28:05;2.87;;;0.97;;
19907;SDS011;10116;53.112;7.356;2023-03-31T08:30:35;1.80;;;1.20;;
19907;SDS011;10116;53.112;7.356;2023-03-31T08:33:01;1.27;;;1.17;;
19907;SDS011;10116;53.112;7.356;2023-03-31T08:35:27;1.23;;;1.10;;
19907;SDS011;10116;53.112;7.356;2023-03-31T08:37:53;1.20;;;1.10;;
19907;SDS011;10116;53.112;7.356;2023-03-31T08:40:20;1.80;;;1.20;;
19907;SDS011;10116;53.112;7.356;2023-03-31T08:42:48;1.53;;;1.20;;
19907;SDS011;10116;53.112;7.356;2023-03-31T08:45:22;1.10;;;1.00;;
19907;SDS011;10116;53.112;7.356;2023-03-31T08:48:35;1.50;;;1.00;;
19907;SDS011;10116;53.112;7.356;2023-03-31T08:50:51;1.70;;;1.60;;
19907;SDS011;10116;53.112;7.356;2023-03-31T08:53:25;2.30;;;1.50;;
19907;SDS011;10116;53.112;7.356;2023-03-31T08:55:55;1.73;;;1.20;;
19907;SDS011;10116;53.112;7.356;2023-03-31T09:09:50;2.10;;;1.57;;
19907;SDS011;10116;53.112;7.356;2023-03-31T09:12:59;2.20;;;1.40;;
19907;SDS011;10116;53.112;7.356;2023-03-31T09:20:43;1.50;;;1.40;;
19907;SDS011;10116;53.112;7.356;2023-03-31T09:23:31;3.73;;;1.47;;
19907;SDS011;10116;53.112;7.356;2023-03-31T09:26:44;2.40;;;1.40;;
19907;SDS011;10116;53.112;7.356;2023-03-31T09:29:21;1.50;;;1.37;;
19907;SDS011;10116;53.112;7.356;2023-03-31T09:31:54;1.87;;;1.70;;
19907;SDS011;10116;53.112;7.356;2023-03-31T09:34:29;1.40;;;1.20;;
19907;SDS011;10116;53.112;7.356;2023-03-31T09:36:57;1.60;;;1.50;;
19907;SDS011;10116;53.112;7.356;2023-03-31T09:39:23;1.60;;;1.50;;
19907;SDS011;10116;53.112;7.356;2023-03-31T09:41:49;3.67;;;1.70;;
19907;SDS011;10116;53.112;7.356;2023-03-31T09:44:23;3.10;;;1.57;;
19907;SDS011;10116;53.112;7.356;2023-03-31T09:46:52;1.60;;;1.50;;
19907;SDS011;10116;53.112;7.356;2023-03-31T09:49:19;1.43;;;1.33;;
19907;SDS011;10116;53.112;7.356;2023-03-31T09:51:48;2.93;;;1.50;;
19907;SDS011;10116;53.112;7.356;2023-03-31T09:54:24;4.10;;;1.77;;
19907;SDS011;10116;53.112;7.356;2023-03-31T09:57:13;3.37;;;1.53;;
19907;SDS011;10116;53.112;7.356;2023-03-31T09:59:40;1.80;;;1.53;;
19907;SDS011;10116;53.112;7.356;2023-03-31T10:05:05;3.63;;;1.63;;
19907;SDS011;10116;53.112;7.356;2023-03-31T10:07:32;2.30;;;1.40;;
19907;SDS011;10116;53.112;7.356;2023-03-31T10:09:59;3.33;;;1.83;;
19907;SDS011;10116;53.112;7.356;2023-03-31T10:12:27;1.80;;;1.27;;
19907;SDS011;10116;53.112;7.356;2023-03-31T10:15:00;1.17;;;1.07;;
19907;SDS011;10116;53.112;7.356;2023-03-31T10:17:35;1.53;;;1.43;;
19907;SDS011;10116;53.112;7.356;2023-03-31T10:20:16;1.30;;;1.20;;
19907;SDS011;10116;53.112;7.356;2023-03-31T10:23:02;2.13;;;1.40;;
19907;SDS011;10116;53.112;7.356;2023-03-31T10:25:42;1.50;;;1.40;;
19907;SDS011;10116;53.112;7.356;2023-03-31T10:28:11;1.50;;;1.40;;
19907;SDS011;10116;53.112;7.356;2023-03-31T10:30:41;1.73;;;1.40;;
19907;SDS011;10116;53.112;7.356;2023-03-31T10:33:30;1.10;;;1.00;;
19907;SDS011;10116;53.112;7.356;2023-03-31T10:35:59;1.43;;;1.20;;
19907;SDS011;10116;53.112;7.356;2023-03-31T10:38:41;1.30;;;1.20;;
19907;SDS011;10116;53.112;7.356;2023-03-31T10:41:09;1.40;;;1.30;;
19907;SDS011;10116;53.112;7.356;2023-03-31T10:43:39;1.70;;;1.00;;
19907;SDS011;10116;53.112;7.356;2023-03-31T10:46:07;1.70;;;1.30;;
19907;SDS011;10116;53.112;7.356;2023-03-31T10:48:33;1.30;;;1.10;;
19907;SDS011;10116;53.112;7.356;2023-03-31T10:51:09;2.83;;;1.03;;
19907;SDS011;10116;53.112;7.356;2023-03-31T10:53:43;1.17;;;0.90;;
19907;SDS011;10116;53.112;7.356;2023-03-31T11:26:08;1.13;;;1.00;;
19907;SDS011;10116;53.112;7.356;2023-03-31T11:39:34;1.27;;;0.90;;
19907;SDS011;10116;53.112;7.356;2023-03-31T11:43:04;2.63;;;1.23;;
19907;SDS011;10116;53.112;7.356;2023-03-31T11:45:24;2.57;;;0.70;;
19907;SDS011;10116;53.112;7.356;2023-03-31T11:48:01;1.07;;;1.00;;
19907;SDS011;10116;53.112;7.356;2023-03-31T11:50:35;0.90;;;0.87;;
19907;SDS011;10116;53.112;7.356;2023-03-31T11:53:13;0.97;;;0.90;;
19907;SDS011;10116;53.112;7.356;2023-03-31T11:55:45;0.63;;;0.63;;
19907;SDS011;10116;53.112;7.356;2023-03-31T11:58:19;0.80;;;0.80;;
19907;SDS011;10116;53.112;7.356;2023-03-31T12:00:55;1.23;;;1.07;;
19907;SDS011;10116;53.112;7.356;2023-03-31T12:06:02;1.50;;;0.90;;
19907;SDS011;10116;53.112;7.356;2023-03-31T12:08:40;0.80;;;0.63;;
19907;SDS011;10116;53.112;7.356;2023-03-31T12:14:22;1.30;;;0.80;;
19907;SDS011;10116;53.112;7.356;2023-03-31T12:16:56;2.00;;;0.83;;
19907;SDS011;10116;53.112;7.356;2023-03-31T12:19:47;1.20;;;0.70;;
19907;SDS011;10116;53.112;7.356;2023-03-31T12:24:44;0.93;;;0.60;;
19907;SDS011;10116;53.112;7.356;2023-03-31T12:29:59;0.60;;;0.60;;
19907;SDS011;10116;53.112;7.356;2023-03-31T12:32:34;1.00;;;0.83;;
19907;SDS011;10116;53.112;7.356;2023-03-31T12:35:22;1.23;;;0.93;;
19907;SDS011;10116;53.112;7.356;2023-03-31T12:37:55;3.27;;;1.00;;
19907;SDS011;10116;53.112;7.356;2023-03-31T12:53:12;3.30;;;1.00;;
19907;SDS011;10116;53.112;7.356;2023-03-31T12:57:48;1.60;;;0.80;;
19907;SDS011;10116;53.112;7.356;2023-03-31T13:00:17;1.27;;;0.80;;
19907;SDS011;10116;53.112;7.356;2023-03-31T13:02:50;1.03;;;0.93;;
19907;SDS011;10116;53.112;7.356;2023-03-31T13:05:54;1.23;;;1.00;;
19907;SDS011;10116;53.112;7.356;2023-03-31T13:09:06;0.93;;;0.93;;
19907;SDS011;10116;53.112;7.356;2023-03-31T13:11:14;2.40;;;0.90;;
19907;SDS011;10116;53.112;7.356;2023-03-31T13:13:56;1.13;;;1.03;;
19907;SDS011;10116;53.112;7.356;2023-03-31T13:16:23;1.83;;;0.90;;
19907;SDS011;10116;53.112;7.356;2023-03-31T13:18:52;0.90;;;0.80;;
19907;SDS011;10116;53.112;7.356;2023-03-31T13:21:18;1.00;;;0.90;;
19907;SDS011;10116;53.112;7.356;2023-03-31T13:23:45;0.80;;;0.80;;
19907;SDS011;10116;53.112;7.356;2023-03-31T13:34:34;1.27;;;0.80;;
19907;SDS011;10116;53.112;7.356;2023-03-31T13:48:32;1.27;;;0.93;;
19907;SDS011;10116;53.112;7.356;2023-03-31T14:05:36;2.80;;;0.93;;
19907;SDS011;10116;53.112;7.356;2023-03-31T14:08:11;2.33;;;0.90;;
19907;SDS011;10116;53.112;7.356;2023-03-31T14:11:20;2.50;;;1.10;;
19907;SDS011;10116;53.112;7.356;2023-03-31T14:19:16;1.13;;;0.80;;
19907;SDS011;10116;53.112;7.356;2023-03-31T14:22:06;1.80;;;1.13;;
19907;SDS011;10116;53.112;7.356;2023-03-31T14:25:43;1.10;;;1.00;;
19907;SDS011;10116;53.112;7.356;2023-03-31T14:36:35;1.10;;;0.93;;
19907;SDS011;10116;53.112;7.356;2023-03-31T14:39:11;1.13;;;1.03;;
19907;SDS011;10116;53.112;7.356;2023-03-31T14:41:40;0.80;;;0.80;;
19907;SDS011;10116;53.112;7.356;2023-03-31T14:44:10;2.50;;;1.00;;
19907;SDS011;10116;53.112;7.356;2023-03-31T14:46:39;1.00;;;0.90;;
19907;SDS011;10116;53.112;7.356;2023-03-31T14:49:18;1.33;;;1.10;;
19907;SDS011;10116;53.112;7.356;2023-03-31T14:51:45;1.00;;;0.80;;
19907;SDS011;10116;53.112;7.356;2023-03-31T14:54:14;1.17;;;1.07;;
19907;SDS011;10116;53.112;7.356;2023-03-31T14:56:42;1.77;;;1.00;;
19907;SDS011;10116;53.112;7.356;2023-03-31T14:59:18;2.00;;;1.10;;
19907;SDS011;10116;53.112;7.356;2023-03-31T15:01:46;0.90;;;0.80;;
19907;SDS011;10116;53.112;7.356;2023-03-31T15:04:14;1.67;;;1.10;;
19907;SDS011;10116;53.112;7.356;2023-03-31T15:06:45;1.03;;;1.00;;
19907;SDS011;10116;53.112;7.356;2023-03-31T15:09:18;1.00;;;1.00;;
19907;SDS011;10116;53.112;7.356;2023-03-31T15:11:46;0.87;;;0.87;;
19907;SDS011;10116;53.112;7.356;2023-03-31T15:14:17;1.10;;;0.97;;
19907;SDS011;10116;53.112;7.356;2023-03-31T15:16:43;1.97;;;1.20;;
19907;SDS011;10116;53.112;7.356;2023-03-31T15:19:14;1.20;;;1.10;;
19907;SDS011;10116;53.112;7.356;2023-03-31T15:24:20;1.30;;;1.20;;
19907;SDS011;10116;53.112;7.356;2023-03-31T15:26:50;1.13;;;1.00;;
19907;SDS011;10116;53.112;7.356;2023-03-31T15:29:23;3.90;;;1.37;;
19907;SDS011;10116;53.112;7.356;2023-03-31T15:31:56;1.60;;;1.20;;
19907;SDS011;10116;53.112;7.356;2023-03-31T15:34:30;2.67;;;1.43;;
19907;SDS011;10116;53.112;7.356;2023-03-31T15:36:57;1.60;;;0.97;;
19907;SDS011;10116;53.112;7.356;2023-03-31T15:39:25;1.37;;;1.27;;
19907;SDS011;10116;53.112;7.356;2023-03-31T15:41:54;2.53;;;0.90;;
19907;SDS011;10116;53.112;7.356;2023-03-31T15:44:37;0.70;;;0.70;;
19907;SDS011;10116;53.112;7.356;2023-03-31T15:47:18;1.73;;;1.03;;
19907;SDS011;10116;53.112;7.356;2023-03-31T15:49:53;1.63;;;0.90;;
19907;SDS011;10116;53.112;7.356;2023-03-31T15:52:31;0.90;;;0.80;;
19907;SDS011;10116;53.112;7.356;2023-03-31T15:55:00;2.67;;;0.90;;
19907;SDS011;10116;53.112;7.356;2023-03-31T15:57:46;1.37;;;0.83;;
19907;SDS011;10116;53.112;7.356;2023-03-31T16:00:39;1.00;;;0.80;;
19907;SDS011;10116;53.112;7.356;2023-03-31T16:02:57;0.97;;;0.97;;
19907;SDS011;10116;53.112;7.356;2023-03-31T16:08:03;1.17;;;0.93;;
19907;SDS011;10116;53.112;7.356;2023-03-31T16:10:35;1.13;;;0.93;;
19907;SDS011;10116;53.112;7.356;2023-03-31T16:13:02;1.00;;;0.77;;
19907;SDS011;10116;53.112;7.356;2023-03-31T16:18:02;2.30;;;1.30;;
19907;SDS011;10116;53.112;7.356;2023-03-31T16:20:35;1.87;;;0.87;;
19907;SDS011;10116;53.112;7.356;2023-03-31T16:23:20;1.07;;;0.67;;
19907;SDS011;10116;53.112;7.356;2023-03-31T16:25:52;1.70;;;0.80;;
19907;SDS011;10116;53.112;7.356;2023-03-31T16:28:20;1.67;;;0.87;;
19907;SDS011;10116;53.112;7.356;2023-03-31T16:30:48;0.70;;;0.70;;
19907;SDS011;10116;53.112;7.356;2023-03-31T16:33:15;0.87;;;0.87;;
19907;SDS011;10116;53.112;7.356;2023-03-31T16:35:44;1.27;;;0.80;;
19907;SDS011;10116;53.112;7.356;2023-03-31T16:38:15;0.80;;;0.60;;
19907;SDS011;10116;53.112;7.356;2023-03-31T16:40:42;1.30;;;0.77;;
19907;SDS011;10116;53.112;7.356;2023-03-31T16:45:42;2.13;;;1.20;;
19907;SDS011;10116;53.112;7.356;2023-03-31T16:48:13;2.23;;;1.33;;
19907;SDS011;10116;53.112;7.356;2023-03-31T16:50:40;5.90;;;1.20;;
19907;SDS011;10116;53.112;7.356;2023-03-31T16:53:06;1.43;;;1.10;;
19907;SDS011;10116;53.112;7.356;2023-03-31T16:55:32;1.33;;;1.10;;
19907;SDS011;10116;53.112;7.356;2023-03-31T16:57:59;2.90;;;1.47;;
19907;SDS011;10116;53.112;7.356;2023-03-31T17:00:27;1.27;;;1.10;;
19907;SDS011;10116;53.112;7.356;2023-03-31T17:02:54;1.40;;;1.00;;
19907;SDS011;10116;53.112;7.356;2023-03-31T17:05:21;1.83;;;1.10;;
19907;SDS011;10116;53.112;7.356;2023-03-31T17:07:46;1.23;;;1.13;;
19907;SDS011;10116;53.112;7.356;2023-03-31T17:10:12;1.57;;;1.47;;
19907;SDS011;10116;53.112;7.356;2023-03-31T17:12:38;3.10;;;1.40;;
19907;SDS011;10116;53.112;7.356;2023-03-31T17:15:04;1.10;;;1.10;;
19907;SDS011;10116;53.112;7.356;2023-03-31T17:17:30;1.43;;;1.33;;
19907;SDS011;10116;53.112;7.356;2023-03-31T17:19:55;1.40;;;1.30;;
19907;SDS011;10116;53.112;7.356;2023-03-31T17:22:23;3.60;;;1.63;;
19907;SDS011;10116;53.112;7.356;2023-03-31T17:24:48;1.67;;;1.43;;
19907;SDS011;10116;53.112;7.356;2023-03-31T17:27:20;1.70;;;1.60;;
19907;SDS011;10116;53.112;7.356;2023-03-31T17:29:46;2.93;;;1.63;;
19907;SDS011;10116;53.112;7.356;2023-03-31T17:32:12;2.90;;;1.80;;
19907;SDS011;10116;53.112;7.356;2023-03-31T17:34:39;2.00;;;1.30;;
19907;SDS011;10116;53.112;7.356;2023-03-31T17:37:05;2.10;;;1.73;;
19907;SDS011;10116;53.112;7.356;2023-03-31T17:39:31;1.90;;;1.70;;
19907;SDS011;10116;53.112;7.356;2023-03-31T17:41:56;2.23;;;1.80;;
19907;SDS011;10116;53.112;7.356;2023-03-31T17:44:22;2.03;;;1.57;;
19907;SDS011;10116;53.112;7.356;2023-03-31T17:46:48;2.17;;;1.67;;
19907;SDS011;10116;53.112;7.356;2023-03-31T17:49:13;2.00;;;1.57;;
19907;SDS011;10116;53.112;7.356;2023-03-31T17:51:40;1.70;;;1.60;;
19907;SDS011;10116;53.112;7.356;2023-03-31T17:54:08;4.03;;;1.60;;
19907;SDS011;10116;53.112;7.356;2023-03-31T17:56:35;1.57;;;1.30;;
19907;SDS011;10116;53.112;7.356;2023-03-31T17:59:01;2.20;;;1.57;;
19907;SDS011;10116;53.112;7.356;2023-03-31T18:01:27;1.43;;;1.33;;
19907;SDS011;10116;53.112;7.356;2023-03-31T18:03:56;1.53;;;1.33;;
19907;SDS011;10116;53.112;7.356;2023-03-31T18:06:22;1.73;;;1.40;;
19907;SDS011;10116;53.112;7.356;2023-03-31T18:08:48;1.50;;;1.27;;
19907;SDS011;10116;53.112;7.356;2023-03-31T18:11:15;1.37;;;1.27;;
19907;SDS011;10116;53.112;7.356;2023-03-31T18:13:41;1.43;;;1.33;;
19907;SDS011;10116;53.112;7.356;2023-03-31T18:16:07;1.87;;;1.60;;
19907;SDS011;10116;53.112;7.356;2023-03-31T18:18:34;1.10;;;1.00;;
19907;SDS011;10116;53.112;7.356;2023-03-31T18:21:07;3.63;;;1.10;;
19907;SDS011;10116;53.112;7.356;2023-03-31T18:23:34;1.47;;;1.30;;
19907;SDS011;10116;53.112;7.356;2023-03-31T18:26:01;3.90;;;1.63;;